Date,TemperatureHighF,TemperatureAvgF,TemperatureLowF,DewpointHighF,DewpointAvgF,DewpointLowF,HumidityHigh,HumidityAvg,HumidityLow,PressureMaxIn,PressureMinIn,WindSpeedMaxMPH,WindSpeedAvgMPH,GustSpeedMaxMPH,PrecipitationSumIn
2012-1-1,40.5,32.6,22.5,36.2,20.7,3.4,88,62,45,30.13,29.49,24,6,24,0.12
2012-1-2,22.3,18.6,12.4,4.0,-3.7,-15.4,48,38,19,30.42,30.13,18,5,18,0.00
2012-1-3,27.3,18.3,7.0,6.2,-1.2,-10.5,55,43,19,30.43,29.94,12,3,12,0.00
2012-1-4,42.4,29.2,18.9,21.5,10.6,-0.3,58,47,19,30.07,29.90,12,2,12,0.00
2012-1-5,51.6,34.0,20.8,30.0,20.9,10.0,72,59,41,30.00,29.69,9,2,9,0.00
2012-1-6,56.3,40.1,29.3,34.3,25.4,19.6,76,57,37,29.85,29.68,8,1,8,0.00
2012-1-7,42.1,32.5,25.9,26.6,19.7,14.9,71,59,47,30.23,29.85,10,1,10,0.00
2012-1-8,40.1,27.8,19.9,23.1,16.3,10.3,73,62,47,30.33,30.22,7,1,7,0.00
2012-1-9,47.1,32.7,19.2,27.1,20.6,11.2,80,62,44,30.25,29.95,19,2,19,0.00
2012-1-10,51.8,35.5,23.9,30.3,21.7,14.8,72,58,37,30.03,29.75,8,1,8,0.00
2012-1-11,54.1,37.4,25.5,31.6,21.5,7.5,72,55,19,29.75,29.55,8,1,8,0.00
2012-1-12,35.2,18.7,11.1,26.4,7.9,-0.3,70,62,58,29.67,29.49,16,4,16,0.00
2012-1-13,23.7,15.4,9.7,3.9,0.3,-2.8,60,51,37,30.02,29.66,12,3,12,0.00
2012-1-14,26.8,14.6,0.5,4.4,-3.1,-12.7,59,46,23,30.21,30.01,6,1,6,0.00
2012-1-15,35.8,24.0,14.7,20.0,13.0,2.5,72,63,51,30.25,29.90,16,6,16,0.00
2012-1-16,44.1,34.1,26.6,31.4,25.5,18.8,78,71,56,29.90,29.68,9,3,9,0.04
2012-1-17,34.2,23.4,5.7,27.6,13.4,-8.9,80,66,50,30.26,29.62,15,4,15,0.00
2012-1-18,22.3,11.4,-1.8,8.0,-3.0,-15.3,60,52,38,30.27,29.78,11,3,11,0.00
2012-1-19,22.3,6.8,-3.6,11.9,-20.1,-35.4,66,29,19,30.18,29.78,12,2,12,0.00
2012-1-20,7.2,3.7,-3.8,-5.2,-18.2,-35.6,57,38,19,30.20,30.05,14,3,14,0.00
2012-1-21,19.9,11.1,5.9,0.7,-5.2,-9.3,61,48,31,30.23,30.01,11,2,11,0.00
2012-1-22,35.8,25.7,11.7,33.6,20.1,0.0,92,79,59,30.01,29.37,16,6,16,0.20
2012-1-23,36.9,31.0,24.6,35.1,25.3,15.1,93,80,61,29.92,29.30,10,2,10,0.11
2012-1-24,38.5,25.7,15.8,18.7,13.3,5.5,69,60,42,30.32,29.92,7,1,7,0.00
2012-1-25,35.8,25.8,16.0,23.6,16.7,6.2,81,68,57,30.32,30.01,10,2,10,0.00
2012-1-26,37.9,31.9,28.6,31.6,26.9,23.5,88,82,73,30.01,29.66,8,1,8,0.00
2012-1-27,41.4,30.5,18.1,27.4,21.5,11.4,84,70,46,29.95,29.69,10,1,10,0.00
2012-1-28,36.5,26.8,18.3,27.8,11.5,-5.7,84,54,19,30.08,29.83,12,1,12,0.04
2012-1-29,34.7,24.3,14.9,18.0,7.5,-7.0,69,50,19,30.21,29.93,11,1,11,0.00
2012-1-30,52.3,35.2,19.4,30.9,22.2,6.5,72,60,42,30.15,29.78,14,3,14,0.00
2012-1-31,56.7,42.3,32.5,45.1,34.8,24.7,87,75,58,29.93,29.74,10,2,10,0.00
2012-2-1,40.6,33.5,26.4,31.3,27.2,19.5,86,78,67,30.16,29.93,5,0,5,0.00
2012-2-2,40.5,31.0,26.2,33.6,25.8,20.9,85,81,74,30.37,30.15,6,0,6,0.00
2012-2-3,31.6,29.3,27.0,28.3,25.7,23.2,88,86,84,30.44,30.34,11,3,11,0.00
2012-2-4,41.7,36.0,26.4,30.8,26.5,17.2,87,68,61,30.31,30.17,13,3,13,0.02
2012-2-5,46.0,31.9,24.8,29.8,22.0,16.9,77,67,48,30.30,30.19,9,2,9,0.00
2012-2-6,32.2,28.1,25.7,23.2,21.2,18.8,81,75,68,30.22,30.11,9,2,9,0.00
2012-2-7,32.7,28.5,23.2,27.4,19.7,10.9,81,70,58,30.40,30.17,17,5,17,0.00
2012-2-8,37.6,23.8,15.3,16.2,8.3,-2.5,67,53,22,30.40,30.29,6,1,6,0.00
2012-2-9,33.6,25.0,14.4,19.2,12.7,5.7,71,60,46,30.29,30.03,12,3,12,0.00
2012-2-10,31.6,23.7,9.7,23.6,11.0,-10.2,73,59,38,30.31,29.91,16,4,16,0.00
2012-2-11,25.0,13.8,5.4,-10.0,-18.7,-27.9,40,22,19,30.43,30.30,17,2,17,0.00
2012-2-12,39.6,20.9,10.8,0.2,-14.4,-23.3,27,20,19,30.39,30.19,12,0,12,0.00
2012-2-13,32.2,24.3,12.4,23.4,10.5,-17.1,79,57,23,30.19,29.79,12,3,12,0.00
2012-2-14,36.9,31.5,27.5,30.1,24.3,20.6,84,75,64,29.97,29.78,10,2,10,0.12
2012-2-15,41.9,33.9,26.1,32.6,27.5,19.5,85,78,67,30.02,29.93,11,2,11,0.02
2012-2-16,54.0,36.6,27.1,34.8,23.1,5.7,87,62,19,30.13,29.96,11,1,11,0.00
2012-2-17,56.1,34.4,20.7,30.9,20.6,10.7,74,58,37,30.14,29.97,12,2,12,0.00
2012-2-18,48.9,32.3,23.7,21.3,10.2,-2.5,67,42,19,30.22,30.06,10,2,10,0.00
2012-2-19,46.2,29.6,18.7,22.7,13.1,2.6,76,52,19,30.20,30.12,7,1,7,0.00
2012-2-20,44.1,31.5,20.5,22.4,16.2,8.4,68,54,33,30.23,29.81,19,4,19,0.00
2012-2-21,47.3,35.7,31.1,34.8,27.5,20.7,84,72,57,29.81,29.60,12,1,12,0.18
2012-2-22,49.1,35.7,27.0,34.9,26.6,16.0,79,70,55,29.68,29.41,8,1,8,0.00
2012-2-23,37.0,31.3,26.4,31.1,26.0,19.6,85,81,76,29.51,29.44,9,1,9,0.05
2012-2-24,41.5,28.5,18.3,28.7,17.8,7.6,87,65,52,29.97,29.48,11,1,11,0.08
2012-2-25,34.2,18.8,9.9,8.1,1.8,-9.8,64,49,19,30.25,29.97,8,1,8,0.02
2012-2-26,52.2,32.4,13.6,29.5,17.2,1.5,61,54,40,30.23,29.89,19,5,19,0.16
2012-2-27,40.5,28.4,19.4,17.1,11.9,7.5,60,50,32,30.43,30.06,15,2,15,0.00
2012-2-28,37.8,31.4,19.0,33.4,21.1,7.5,85,66,55,30.42,29.65,16,4,16,0.20
2012-2-29,48.7,39.4,31.8,42.4,31.0,23.1,93,74,45,29.66,29.40,23,5,23,0.19
2012-3-1,39.0,35.0,32.9,28.8,26.7,23.9,80,72,61,29.85,29.65,8,1,8,0.02
2012-3-2,36.0,32.6,28.8,29.1,26.7,19.7,84,79,69,29.73,29.42,14,4,14,0.00
2012-3-3,34.0,29.1,25.3,19.7,17.5,14.6,70,62,50,29.83,29.63,16,4,16,0.00
2012-3-4,41.7,26.1,15.3,18.2,11.3,3.4,65,54,29,30.04,29.81,8,1,8,0.14
2012-3-5,43.3,28.7,17.6,20.6,13.0,0.3,71,54,19,30.32,30.04,11,3,11,0.02
2012-3-6,66.4,41.3,28.8,41.5,28.3,20.6,72,61,39,30.11,29.80,18,6,18,0.00
2012-3-7,67.1,55.2,40.1,48.4,42.4,34.8,85,63,49,29.88,29.74,19,7,19,0.23
2012-3-8,40.1,40.1,40.1,35.9,35.9,35.9,85,85,85,29.85,29.85,3,3,10,0.00
2012-3-9,46.6,34.1,23.5,22.7,-0.1,-12.7,61,24,19,30.53,30.21,12,3,12,0.00
2012-3-10,62.2,42.3,25.7,29.3,20.4,10.7,60,45,19,30.42,30.13,18,6,18,0.00
2012-3-11,65.8,48.6,31.3,45.9,29.6,21.5,82,52,19,30.21,29.93,15,4,15,0.06
2012-3-12,63.5,54.3,48.0,54.4,48.6,42.9,96,82,57,29.93,29.74,14,4,15,0.31
2012-3-13,73.8,54.3,38.5,51.3,40.3,27.5,96,66,19,30.10,29.91,10,1,10,0.00
2012-3-14,81.7,63.8,50.2,58.4,52.0,38.5,91,67,41,29.98,29.86,17,4,17,0.00
2012-3-15,85.5,66.4,55.9,63.9,54.0,47.8,96,69,31,29.99,29.91,11,1,11,0.00
2012-3-16,83.8,65.9,52.9,60.8,54.6,49.6,96,69,42,30.03,29.94,11,3,11,0.00
2012-3-17,84.4,67.6,56.1,62.1,56.0,51.1,96,69,39,30.04,29.91,15,4,15,0.00
2012-3-18,85.5,67.8,55.8,59.7,54.2,49.1,87,65,35,30.01,29.88,17,5,17,0.00
2012-3-19,79.0,66.6,59.9,66.8,59.0,55.1,96,78,54,29.98,29.81,17,4,17,0.43
2012-3-20,84.4,69.1,57.6,58.6,50.6,43.5,80,55,26,29.99,29.85,23,6,23,0.00
2012-3-21,87.3,71.4,59.2,58.4,51.1,38.0,80,53,19,30.06,29.96,14,4,14,0.00
2012-3-22,76.1,65.3,62.1,60.8,57.7,51.1,81,77,47,30.04,29.98,8,2,8,0.04
2012-3-23,71.8,63.1,56.1,61.4,56.3,50.6,96,80,54,29.99,29.79,9,2,9,0.16
2012-3-24,73.2,61.0,54.9,59.0,55.0,52.3,96,82,52,29.97,29.79,8,1,8,0.00
2012-3-25,83.5,64.8,54.0,60.1,53.0,46.5,96,69,33,30.12,29.96,8,1,8,0.00
2012-3-26,54.5,42.8,35.2,47.9,29.8,21.7,82,62,36,30.35,30.12,16,5,16,0.02
2012-3-27,77.5,57.4,40.3,55.1,40.9,25.3,71,55,40,30.13,29.75,23,7,23,0.00
2012-3-28,72.5,57.7,46.4,52.7,39.7,36.0,73,53,28,30.03,29.80,14,2,14,0.00
2012-3-29,64.8,48.0,37.0,37.8,33.9,30.4,79,60,35,30.12,29.88,12,4,12,0.00
2012-3-30,57.0,46.8,37.6,48.2,40.3,31.5,96,79,63,29.93,29.69,12,3,12,0.29
2012-3-31,54.5,45.0,37.8,43.8,38.6,34.4,90,79,61,29.98,29.77,10,3,10,0.00
2012-4-1,64.4,53.5,45.0,54.0,47.4,40.7,96,80,65,29.77,29.66,13,4,13,0.00
2012-4-2,73.0,58.7,44.2,45.2,41.6,38.4,86,55,35,29.86,29.75,15,4,15,0.00
2012-4-3,76.5,59.8,49.8,52.7,45.0,39.2,78,60,36,29.98,29.79,17,4,17,0.00
2012-4-4,71.2,55.3,45.3,41.7,28.7,12.7,75,41,19,30.00,29.87,61,5,61,0.00
2012-4-5,62.1,52.2,40.3,32.8,29.6,23.8,69,44,24,30.09,30.02,62,11,62,0.00
2012-4-7,52.2,50.6,48.7,47.0,46.0,42.8,88,84,70,30.20,30.14,6,1,6,0.02
2012-4-8,48.6,40.1,34.2,45.3,37.0,30.6,91,89,87,30.28,30.19,5,0,5,0.02
2012-4-9,59.5,58.9,58.6,17.1,16.6,16.4,19,19,19,29.99,29.98,10,7,10,0.00
2012-4-11,60.6,51.8,38.1,25.0,21.9,18.0,52,33,19,30.29,30.22,5,2,5,0.00
2012-4-12,38.7,35.8,33.6,22.5,20.7,19.4,56,54,52,30.24,30.22,2,0,2,0.00
2012-4-13,56.7,52.6,48.9,42.9,40.6,33.0,74,64,48,30.13,30.02,9,5,9,0.06
2012-4-14,61.5,58.1,52.5,58.0,54.1,48.1,92,87,81,29.93,29.65,9,2,9,0.55
2012-4-15,73.8,66.7,59.5,65.2,60.9,57.3,96,83,64,29.70,29.48,20,6,20,2.24
2012-4-16,62.8,51.7,39.4,57.2,41.1,32.1,85,68,44,30.20,29.44,15,4,15,0.00
2012-4-17,63.3,47.3,34.3,40.5,35.5,29.3,88,66,41,30.36,30.20,6,1,6,0.00
2012-4-18,75.4,59.1,43.0,51.3,45.1,35.4,82,61,38,30.22,29.91,15,3,15,0.00
2012-4-19,66.4,55.2,43.2,54.1,49.4,41.1,93,82,62,29.96,29.70,13,3,13,0.16
2012-4-20,50.2,42.8,35.8,41.9,37.7,31.3,96,83,63,30.04,29.67,14,4,14,0.05
2012-4-21,64.6,47.2,34.3,36.8,32.4,28.1,91,61,30,30.06,29.97,9,1,9,0.00
2012-4-22,64.4,47.5,37.4,33.5,26.7,15.8,70,47,19,30.14,29.97,13,3,13,0.00
2012-4-23,65.7,47.1,34.5,38.5,30.1,24.8,72,54,27,30.12,29.83,9,1,9,0.00
2012-4-24,68.5,52.1,45.1,34.8,33.5,30.8,64,51,25,29.83,29.65,5,0,5,0.00
2012-4-25,74.7,58.7,47.8,47.9,42.6,32.8,81,57,32,29.70,29.56,12,3,12,0.00
2012-4-26,77.5,56.1,44.2,48.4,38.5,24.3,90,58,19,30.10,29.64,12,3,12,0.00
2012-4-27,56.7,46.6,33.8,33.2,19.4,5.7,78,40,19,30.25,30.03,13,4,13,0.00
2012-4-28,53.2,45.6,38.8,41.7,37.9,25.6,91,75,55,30.19,29.97,60,5,60,0.46
2012-4-29,59.4,47.7,37.8,48.0,41.2,34.4,96,79,50,30.22,30.00,13,3,13,0.17
2012-4-30,59.9,53.3,44.2,55.3,49.2,40.7,96,87,75,30.00,29.91,6,0,6,0.00
2012-5-1,65.3,53.9,41.9,57.6,49.9,39.7,96,87,73,29.98,29.79,12,2,12,0.00
2012-5-2,88.7,67.2,57.7,65.2,60.4,56.6,96,82,38,29.87,29.69,11,2,11,0.28
2012-5-3,95.4,75.1,65.7,68.2,63.9,59.6,89,71,33,29.89,29.80,59,2,59,0.00
2012-5-4,92.8,76.4,61.3,64.7,60.0,57.1,86,59,33,29.98,29.87,9,2,9,0.29
2012-5-5,77.0,65.5,58.3,60.9,56.6,54.0,86,74,54,30.01,29.96,11,4,11,0.00
2012-5-6,75.4,64.5,56.7,64.5,58.8,53.8,96,82,65,29.99,29.83,13,3,13,0.00
2012-5-7,76.5,63.4,56.1,60.7,54.3,45.3,96,75,41,29.92,29.78,12,1,12,0.67
2012-5-8,73.4,61.4,52.2,49.3,43.3,37.5,80,54,29,29.92,29.86,14,1,14,0.00
2012-5-9,70.5,57.2,45.9,49.7,41.8,35.8,86,59,35,29.96,29.88,9,0,9,0.00
2012-5-10,76.8,60.4,43.2,45.9,36.8,28.9,77,46,19,30.02,29.95,7,0,7,0.00
2012-5-11,84.0,69.0,50.2,53.5,45.6,32.4,62,44,31,30.10,30.01,14,2,14,2.53
2012-5-12,71.4,63.4,55.8,53.4,49.3,43.5,72,61,49,30.25,30.10,8,1,8,0.00
2012-5-13,82.0,64.8,50.9,48.8,37.4,27.3,74,41,19,30.27,30.11,6,0,7,0.00
2012-5-14,87.1,67.2,50.2,43.8,35.5,28.2,56,34,19,30.12,29.97,6,0,6,0.00
2012-5-15,92.8,71.9,54.7,47.3,41.5,36.4,60,36,19,29.98,29.79,9,0,9,0.00
2012-5-16,81.9,62.2,49.1,41.0,33.1,23.6,65,37,19,30.12,29.93,9,1,9,0.00
2012-5-17,77.7,64.4,49.1,37.6,31.5,23.8,50,31,19,30.15,29.98,11,2,11,0.00
2012-5-18,94.1,71.6,54.9,46.4,38.2,31.0,48,31,19,30.03,29.91,11,1,11,0.00
2012-5-19,94.1,77.6,62.8,57.6,48.9,38.0,57,38,19,30.00,29.91,9,1,9,0.00
2012-5-20,90.0,75.2,57.9,59.3,53.5,43.7,64,48,30,30.11,29.94,8,0,8,0.00
2012-5-21,84.4,64.2,51.8,44.2,39.5,30.2,67,43,19,30.19,30.09,11,1,11,0.00
2012-5-22,84.6,65.6,50.7,42.3,37.4,30.6,62,38,19,30.11,29.88,6,0,6,0.00
2012-5-23,87.1,70.3,54.0,44.5,38.3,32.7,52,34,19,29.90,29.67,14,1,14,0.00
2012-5-24,91.8,73.7,62.2,57.6,49.0,41.0,59,43,24,29.71,29.49,17,2,17,2.53
2012-5-25,75.9,67.3,57.0,56.6,51.0,44.1,79,58,33,30.09,29.70,10,0,10,0.00
2012-5-26,88.5,74.2,59.7,62.2,55.1,47.4,80,52,39,30.13,29.98,12,2,12,0.04
2012-5-27,97.3,82.3,68.2,67.3,56.9,45.6,75,46,19,29.98,29.78,12,1,12,0.00
2012-5-28,90.5,77.3,67.6,67.5,60.3,55.6,79,57,40,29.82,29.66,16,0,16,0.16
2012-5-29,82.6,69.4,56.7,59.3,44.5,29.5,78,46,19,29.90,29.81,10,0,10,0.00
2012-5-30,70.0,61.3,52.7,45.4,40.3,36.9,69,47,34,29.96,29.88,7,0,7,0.00
2012-5-31,58.1,49.5,46.0,48.0,44.6,41.7,96,84,58,30.00,29.91,12,2,12,1.10
2012-6-1,70.0,58.4,48.4,47.9,42.6,38.9,81,59,34,29.94,29.80,5,0,5,0.00
2012-6-2,74.8,63.3,51.6,52.1,47.4,40.3,74,57,42,29.81,29.75,4,0,4,0.00
2012-6-3,80.8,66.5,54.1,56.8,50.7,45.6,83,61,31,29.88,29.80,6,0,6,0.13
2012-6-4,83.3,70.1,59.4,59.1,53.3,45.4,90,59,30,29.94,29.82,8,1,8,0.06
2012-6-5,79.0,68.6,59.9,53.8,47.1,41.5,66,47,32,30.03,29.93,9,1,9,0.00
2012-6-6,79.2,66.8,52.9,50.0,44.1,39.4,75,47,27,30.10,30.02,11,1,11,0.00
2012-6-7,84.0,71.1,57.6,49.8,45.4,41.5,58,42,26,30.14,30.04,6,0,6,0.00
2012-6-8,87.4,74.2,59.7,55.2,49.5,46.5,67,44,26,30.09,29.90,5,0,5,0.00
2012-6-9,89.1,76.5,61.3,55.0,50.2,46.4,63,42,26,29.94,29.82,8,0,8,0.00
2012-6-10,88.5,79.0,68.2,60.6,55.8,49.3,66,46,28,29.92,29.82,17,2,17,0.00
2012-6-11,85.8,75.5,65.5,68.0,61.0,51.8,96,62,45,29.92,29.78,9,0,9,0.41
2012-6-12,73.2,66.0,57.4,51.3,46.2,43.2,64,50,38,30.14,29.92,7,1,7,0.00
2012-6-13,75.4,66.2,54.3,51.4,43.7,35.6,68,46,26,30.19,30.04,9,2,9,0.00
2012-6-14,87.1,72.9,57.0,53.5,48.0,35.5,63,43,29,30.09,29.94,11,2,11,0.00
2012-6-15,90.3,78.5,64.8,59.3,53.1,49.1,61,43,28,30.05,29.94,10,2,10,0.00
2012-6-16,88.7,77.2,68.7,70.3,62.0,50.5,91,61,41,30.01,29.85,10,1,10,0.71
2012-6-17,85.6,76.2,68.5,68.9,61.3,52.8,92,64,34,29.93,29.76,0,0,3,0.00
2012-6-18,91.9,81.8,71.1,68.6,65.2,58.5,80,59,40,29.78,29.63,3,0,3,0.00
2012-6-19,91.8,83.0,72.3,67.9,65.4,61.8,72,56,43,29.91,29.78,0,0,0,0.00
2012-6-20,92.3,82.9,72.3,67.7,64.8,62.6,75,56,39,29.97,29.82,0,0,0,0.00
2012-6-21,84.9,75.4,66.9,65.1,58.5,50.9,84,58,35,30.01,29.85,0,0,0,0.02
2012-6-22,86.9,73.7,58.5,59.8,51.3,46.4,76,48,27,30.04,29.96,0,0,0,0.00
2012-6-23,84.6,73.4,62.2,58.0,54.1,48.6,64,52,37,30.04,29.96,0,0,0,0.00
2012-6-24,88.3,78.3,65.7,67.7,61.8,55.3,73,58,46,30.01,29.91,0,0,0,0.00
2012-6-25,80.2,70.6,59.9,58.8,42.0,35.3,66,37,23,30.11,29.98,5,0,5,0.00
2012-6-26,84.6,70.2,52.3,51.9,46.2,38.2,69,45,26,30.08,29.91,7,1,7,0.00
2012-6-27,92.3,76.8,59.9,61.8,54.1,47.6,67,48,30,29.93,29.75,10,1,10,0.00
2012-6-28,97.7,84.6,70.7,74.2,67.5,58.8,77,58,45,29.89,29.78,5,0,5,0.00
2012-6-29,85.6,74.4,64.8,70.6,61.5,52.6,88,65,47,29.98,29.78,9,1,9,0.33
2012-6-30,90.3,78.1,65.3,70.7,66.1,62.1,96,70,41,29.87,29.80,5,0,5,0.00
2012-7-1,89.6,81.1,71.2,74.1,69.0,66.7,91,68,49,30.00,29.86,6,0,6,0.00
2012-7-2,95.7,84.5,73.6,73.5,69.4,65.8,81,63,39,29.98,29.89,4,0,4,0.00
2012-7-3,95.4,83.7,72.5,73.0,69.0,64.5,76,63,40,29.93,29.81,6,0,6,0.00
2012-7-4,97.7,86.3,74.7,74.6,70.1,67.4,81,61,39,29.91,29.84,6,0,6,0.00
2012-7-5,98.1,87.0,75.0,73.4,69.9,66.8,76,59,40,29.95,29.89,4,0,4,0.00
2012-7-6,99.7,89.2,77.9,76.6,70.3,65.2,78,56,34,30.00,29.93,3,0,3,0.00
2012-7-7,103.5,85.8,74.1,74.6,69.1,63.9,79,60,31,30.04,29.91,8,0,8,0.14
2012-7-8,88.3,79.3,70.3,64.8,54.6,49.9,73,44,28,30.11,30.01,9,1,9,0.00
2012-7-9,90.7,78.6,67.5,66.5,60.0,56.0,73,55,32,30.07,29.99,8,0,8,0.00
2012-7-10,83.1,75.5,67.5,59.3,55.4,47.9,72,51,36,30.14,30.06,9,1,9,0.00
2012-7-11,89.2,77.1,58.6,54.7,47.6,38.6,67,39,19,30.16,30.06,7,1,7,0.00
2012-7-12,92.8,78.3,62.2,62.3,57.0,53.0,75,50,31,30.09,30.01,6,0,6,0.00
2012-7-13,82.0,74.5,69.3,71.6,63.1,56.4,91,68,55,30.08,30.00,4,0,4,0.08
2012-7-14,91.2,79.8,71.1,70.5,65.3,60.8,92,64,39,30.09,29.97,4,0,4,0.00
2012-7-15,96.4,82.6,69.6,71.5,65.8,60.3,84,60,33,30.07,29.97,4,0,4,0.00
2012-7-16,97.5,84.8,73.4,71.3,66.7,61.5,80,57,33,30.01,29.83,6,0,6,0.00
2012-7-17,101.3,87.3,74.7,71.8,66.9,62.1,79,54,31,29.88,29.81,4,0,4,0.00
2012-7-18,102.4,85.5,72.0,73.1,68.4,64.2,88,59,33,29.93,29.79,10,1,10,0.02
2012-7-19,87.4,72.4,69.3,69.5,65.5,60.1,89,80,49,30.03,29.85,7,1,7,0.00
2012-7-20,85.5,74.9,67.5,63.0,60.0,54.8,82,62,37,30.12,30.01,7,2,7,0.00
2012-7-21,88.2,71.8,65.7,66.0,60.4,57.7,77,69,46,30.12,30.04,0,0,0,0.00
2012-7-22,90.0,81.5,69.6,69.9,66.4,62.3,91,62,41,30.13,29.96,0,0,0,0.00
2012-7-23,93.6,83.3,72.1,73.7,67.1,60.5,76,59,44,29.97,29.91,0,0,0,0.00
2012-7-24,86.4,79.8,71.6,73.6,66.9,60.5,79,66,50,30.02,29.89,7,1,7,0.00
2012-7-25,101.5,84.4,69.1,71.0,64.1,55.5,76,53,30,29.92,29.57,7,1,7,0.00
2012-7-26,95.4,80.0,71.1,72.2,65.6,55.4,86,64,33,29.79,29.61,6,0,6,0.21
2012-7-27,87.4,82.2,68.5,63.5,58.6,54.9,76,46,35,29.98,29.83,6,1,6,0.00
2012-7-28,86.4,81.2,71.4,63.8,60.4,58.0,71,51,39,30.14,30.12,3,2,3,0.00
2012-7-29,86.2,78.7,68.4,67.5,63.8,62.2,88,61,46,30.08,29.96,8,1,8,0.22
2012-7-30,92.7,81.1,71.2,68.2,63.9,58.3,72,57,40,29.96,29.87,6,0,6,0.00
2012-7-31,94.3,82.4,73.4,67.9,62.3,55.4,77,53,30,29.96,29.86,11,1,11,0.00
2012-8-1,92.8,80.5,68.9,64.2,60.8,57.3,77,54,31,29.98,29.84,28,1,28,0.02
2012-8-2,92.8,81.7,70.7,62.6,59.3,54.6,68,49,28,29.91,29.80,28,4,28,0.41
2012-8-3,96.3,82.6,68.5,67.6,61.4,55.1,76,51,27,29.90,29.84,14,1,14,0.00
2012-8-4,91.4,75.5,70.7,70.0,66.4,60.2,85,75,44,29.94,29.78,71,1,71,5.16
2012-8-5,86.4,78.2,66.9,57.8,50.4,44.6,57,39,28,30.16,29.94,14,1,64,0.08
2012-8-6,82.4,67.8,59.2,56.5,51.3,48.4,71,57,33,30.17,30.11,8,0,8,0.00
2012-8-7,92.3,78.9,64.4,62.6,57.6,54.7,74,50,33,30.00,29.91,2,0,2,0.00
2012-8-8,77.4,70.8,66.0,67.6,62.6,55.5,81,76,54,30.01,29.94,14,1,14,0.06
2012-8-9,74.8,65.9,60.8,64.3,59.4,55.8,87,80,63,29.95,29.88,114,3,114,1.15
2012-8-10,80.4,68.0,58.5,59.8,52.8,45.6,91,62,34,30.01,29.91,17,2,17,0.10
2012-8-11,82.6,68.3,54.9,51.9,47.1,38.8,77,50,23,30.05,29.97,43,1,43,0.00
2012-8-12,72.0,65.7,59.9,58.8,53.4,48.4,77,65,52,30.04,29.96,14,0,14,0.51
2012-8-13,73.4,65.6,61.5,61.3,57.8,55.6,90,77,55,29.99,29.94,14,1,14,0.30
2012-8-14,86.4,72.0,59.9,63.2,57.0,50.2,87,63,32,29.97,29.89,11,1,11,0.00
2012-8-15,83.7,75.9,65.8,62.4,58.2,54.3,82,56,38,29.96,29.82,8,0,8,0.00
2012-8-16,77.4,70.6,62.2,65.8,58.0,50.2,88,66,44,29.97,29.67,17,2,17,0.35
2012-8-17,79.2,66.7,54.7,52.6,46.4,39.1,77,51,26,30.04,29.96,12,1,12,0.00
2012-8-18,79.9,67.0,54.9,52.0,45.6,39.3,68,49,25,30.03,29.93,14,0,14,0.12
2012-8-19,80.1,66.4,58.5,55.2,50.2,46.0,78,58,33,29.99,29.91,14,0,14,1.37
2012-8-20,81.7,67.3,55.0,58.1,48.3,38.8,85,56,24,30.01,29.94,14,1,14,0.18
2012-8-21,80.1,68.1,54.0,54.7,46.6,41.4,73,49,27,30.09,30.01,5,0,5,0.00
2012-8-22,85.5,72.1,58.1,56.6,51.5,46.0,70,50,30,30.10,29.99,8,0,8,0.00
2012-8-23,90.0,77.3,65.1,60.7,54.5,50.0,61,47,30,30.06,29.96,7,0,7,0.00
2012-8-24,90.5,78.3,66.4,60.6,56.0,51.5,69,48,27,30.02,29.94,4,0,6,0.00
2012-8-25,90.0,78.6,68.4,61.5,56.5,53.8,62,48,30,30.04,29.95,36,1,36,0.08
2012-8-26,75.4,72.2,68.4,69.6,65.6,57.5,91,80,55,30.02,29.95,14,0,14,0.88
2012-8-27,89.1,76.0,65.1,69.5,60.3,52.3,96,63,31,30.11,30.00,86,1,86,0.06
2012-8-28,87.4,75.9,64.0,61.9,58.0,54.1,72,56,34,30.14,30.02,9,0,9,0.00
2012-8-29,86.9,75.9,65.5,63.0,59.9,56.5,77,59,40,30.09,29.96,10,0,10,0.00
2012-8-30,89.8,77.5,66.6,64.8,61.8,59.2,82,61,38,30.03,29.91,14,1,14,0.04
2012-8-31,91.4,79.0,66.9,68.4,63.7,58.0,76,61,42,30.05,29.96,10,0,10,0.00
2012-9-1,77.7,72.9,68.5,64.9,55.9,51.2,68,55,47,30.06,29.94,15,3,16,0.19
2012-9-2,88.5,76.8,68.5,68.6,64.5,56.7,80,67,47,29.95,29.87,14,2,14,0.14
2012-9-3,91.8,79.4,66.7,68.7,64.8,59.9,79,63,42,29.95,29.87,14,1,14,0.26
2012-9-4,91.8,80.6,65.8,69.5,65.3,53.2,82,61,41,29.94,29.80,24,1,24,0.17
2012-9-5,88.0,75.0,63.9,63.7,60.5,56.6,87,63,40,29.98,29.76,21,1,21,0.57
2012-9-6,84.6,73.6,64.0,61.4,53.6,43.4,81,54,25,29.97,29.85,10,1,10,0.00
2012-9-7,73.8,65.9,57.4,61.3,55.8,49.4,87,70,51,29.91,29.77,11,1,11,0.29
2012-9-8,72.9,62.5,52.0,50.4,46.3,42.0,81,58,34,29.96,29.78,16,2,16,0.42
2012-9-9,74.1,63.0,53.6,52.3,46.3,41.8,84,58,34,30.15,29.90,14,2,14,0.00
2012-9-10,76.1,64.3,53.2,53.5,46.6,43.4,74,55,34,30.20,30.05,14,0,14,0.00
2012-9-11,82.8,67.9,54.9,55.3,51.2,47.4,81,58,34,30.12,29.99,14,1,14,0.00
2012-9-12,86.9,71.7,59.2,59.0,54.1,42.0,82,57,30,30.14,30.03,9,1,12,0.04
2012-9-13,68.7,58.0,52.5,51.5,45.4,37.1,85,65,36,30.33,30.14,17,2,17,0.09
2012-9-14,74.7,60.7,47.7,53.1,43.8,36.8,89,59,26,30.35,30.26,13,0,13,0.00
2012-9-15,77.7,64.4,52.0,49.9,42.3,34.5,74,48,22,30.31,30.12,14,0,14,0.22
2012-9-16,74.3,63.4,52.7,50.7,44.0,38.6,74,51,30,30.12,29.95,14,0,14,0.00
2012-9-17,76.3,61.7,51.4,60.7,51.4,43.9,86,70,50,29.96,29.76,21,1,21,0.41
2012-9-18,62.6,53.5,44.8,44.8,36.1,24.5,85,56,26,30.03,29.88,15,1,15,0.00
2012-9-19,74.5,59.1,41.7,46.6,38.3,32.1,76,50,27,30.03,29.74,36,2,36,0.22
2012-9-20,70.2,60.5,50.4,41.4,32.1,21.3,63,37,19,29.94,29.85,14,1,14,0.00
2012-9-21,56.3,52.3,49.5,47.9,42.7,31.8,87,71,45,29.94,29.79,11,1,11,0.23
2012-9-22,58.5,51.2,41.5,47.2,37.7,30.3,91,61,45,30.19,29.81,36,3,36,2.89
2012-9-23,60.8,49.3,37.9,41.2,30.6,16.7,80,53,19,30.27,30.18,15,1,15,0.33
2012-9-24,71.4,54.1,36.7,37.7,29.2,21.0,74,44,19,30.22,29.88,36,2,36,0.20
2012-9-25,79.7,63.9,48.4,50.0,43.4,35.1,71,49,29,29.89,29.79,7,0,7,0.00
2012-9-26,70.7,59.9,50.9,50.2,42.2,33.2,85,55,31,30.16,29.88,13,2,13,0.00
2012-9-27,67.1,54.9,41.9,43.6,38.3,33.9,77,56,35,30.24,30.14,14,1,14,0.00
2012-9-28,69.8,56.5,43.0,46.2,36.5,30.2,78,51,24,30.22,30.11,12,1,12,0.02
2012-9-29,80.1,62.7,48.2,44.7,36.4,29.7,71,42,19,30.13,29.94,11,1,11,0.00
2012-9-30,71.8,59.5,46.2,47.3,38.4,32.6,76,48,25,29.99,29.91,14,2,14,0.04
2012-10-1,69.1,57.7,46.6,47.5,37.9,33.2,71,50,27,29.94,29.82,14,0,14,0.00
2012-10-2,74.1,62.2,47.1,45.0,37.2,28.9,74,43,21,29.91,29.82,12,1,12,0.00
2012-10-3,73.0,58.6,46.6,54.4,43.8,36.4,85,61,32,30.01,29.90,12,0,12,0.00
2012-10-4,68.5,55.3,45.7,53.9,43.2,30.8,88,65,48,30.14,29.96,14,1,14,0.29
2012-10-5,53.2,43.8,36.5,35.3,21.6,5.0,71,44,19,30.19,30.08,16,2,16,0.00
2012-10-6,47.3,39.6,30.9,28.7,22.4,15.0,65,50,41,30.19,30.08,15,1,15,0.00
2012-10-7,53.4,42.9,34.7,26.3,15.2,-1.0,58,36,19,30.19,30.09,10,1,10,0.04
2012-10-8,61.7,48.3,30.2,30.4,22.1,11.7,66,38,19,30.10,29.91,36,2,36,0.02
2012-10-9,62.8,50.7,41.4,39.1,34.8,29.4,86,56,36,29.93,29.80,23,2,23,0.08
2012-10-10,54.9,42.6,32.2,37.3,25.9,17.0,86,55,25,30.14,29.93,16,1,16,0.02
2012-10-11,68.9,52.2,34.5,35.2,29.6,20.9,73,45,23,30.27,30.01,16,2,16,0.00
2012-10-12,59.2,46.3,32.2,30.3,19.1,7.0,65,36,19,30.43,30.19,14,2,14,0.02
2012-10-13,63.7,54.5,43.5,62.5,50.4,27.4,96,87,47,30.20,29.73,10,1,10,29.49
2012-10-14,68.0,57.7,44.2,62.3,54.4,39.4,96,89,67,29.83,29.43,19,2,19,3.42
2012-10-15,63.0,50.1,39.0,41.7,37.6,35.3,89,65,38,29.96,29.82,13,1,13,0.00
2012-10-16,72.5,58.1,45.0,51.2,44.7,36.9,82,63,43,29.92,29.47,20,2,20,0.00
2012-10-17,67.1,57.3,50.5,56.9,49.4,44.3,96,75,53,29.50,29.33,17,1,17,0.00
2012-10-18,50.5,45.4,42.6,44.7,40.3,37.0,96,83,71,29.42,29.33,14,2,14,0.00
2012-10-19,54.0,46.8,41.2,48.0,41.4,36.0,96,83,56,29.68,29.38,15,1,15,0.00
2012-10-20,58.5,46.4,36.5,43.5,37.1,34.1,92,72,46,29.92,29.67,14,1,14,0.00
2012-10-21,70.9,55.1,41.4,50.4,43.7,34.3,89,68,41,29.97,29.88,14,2,14,0.00
2012-10-22,64.4,60.6,57.4,63.1,57.5,49.5,96,90,73,29.93,29.85,13,1,13,0.00
2012-10-23,72.5,65.6,60.4,66.4,61.3,59.3,96,87,66,29.89,29.80,17,2,17,0.00
2012-10-24,81.0,69.4,62.1,63.8,61.5,59.0,91,77,53,29.89,29.75,14,2,14,0.00
2012-10-25,72.0,58.8,38.5,61.6,52.0,28.3,88,78,65,30.11,29.60,25,5,25,0.00
2012-10-26,53.8,41.7,32.5,29.6,25.6,21.9,71,54,33,30.32,30.10,14,2,14,0.00
2012-10-27,52.0,38.6,28.0,28.9,21.6,18.1,70,52,31,30.34,30.24,12,1,12,0.00
2012-10-28,56.1,39.8,28.9,28.9,21.8,15.7,63,50,30,30.31,30.25,15,1,15,0.00
2012-10-29,59.0,41.0,28.6,31.9,18.6,2.7,69,45,19,30.32,30.12,14,2,14,0.00
2012-10-30,54.5,41.5,34.2,26.4,18.6,3.9,62,42,19,30.12,29.86,20,3,20,0.00
2012-10-31,56.3,39.2,27.7,28.5,14.6,-4.0,65,41,19,29.90,29.84,18,2,18,0.00
2012-11-1,62.4,41.9,31.6,29.3,19.6,7.0,55,42,24,29.94,29.81,36,1,36,0.19
2012-11-2,53.1,40.7,29.7,30.3,24.1,19.8,73,53,35,30.14,29.94,9,1,9,0.00
2012-11-3,50.5,40.7,33.8,33.5,27.4,21.6,70,60,46,30.20,30.11,9,1,9,0.00
2012-11-4,54.0,42.0,34.3,33.7,28.0,22.5,71,58,40,30.23,30.14,8,0,8,0.00
2012-11-5,51.6,39.1,28.8,32.2,24.7,20.0,77,58,37,30.18,30.07,71,1,71,0.10
2012-11-6,40.6,36.0,29.7,39.6,31.7,20.5,96,84,65,30.09,29.83,14,1,14,0.21
2012-11-7,45.5,40.6,37.0,38.9,35.7,33.1,93,83,74,30.14,29.87,14,1,14,0.06
2012-11-8,54.5,43.4,38.3,35.9,33.9,32.7,84,70,48,30.16,30.02,50,1,50,0.00
2012-11-9,57.7,47.8,37.6,44.1,39.6,33.2,87,74,54,30.05,29.92,14,2,14,0.57
2012-11-10,68.7,59.0,50.5,52.3,49.0,43.2,88,70,55,29.94,29.76,22,5,22,0.02
2012-11-11,64.6,53.3,32.2,54.6,45.2,25.5,89,75,63,29.97,29.62,22,5,22,0.98
2012-11-12,33.1,28.2,21.4,25.5,15.6,10.3,76,59,48,30.32,29.94,19,2,19,0.18
2012-11-13,48.9,31.8,20.3,21.8,14.4,1.5,68,51,19,30.45,30.32,14,0,14,0.02
2012-11-14,53.1,33.9,29.5,28.3,23.4,18.4,71,65,38,30.42,30.30,8,1,8,0.00
2012-11-15,56.7,39.3,29.8,30.9,26.4,22.5,75,61,35,30.32,30.25,14,1,14,0.00
2012-11-16,63.9,43.1,31.5,36.6,29.0,21.4,75,59,33,30.43,30.32,14,1,14,0.00
2012-11-17,56.8,43.1,34.3,34.1,28.8,25.3,72,59,34,30.47,30.38,14,1,14,0.00
2012-11-18,56.8,44.7,34.0,35.7,31.0,25.8,75,60,40,30.38,30.24,14,2,14,0.00
2012-11-19,55.2,47.6,42.1,42.4,37.6,31.5,76,68,57,30.25,30.05,9,1,9,0.00
2012-11-20,68.2,52.0,41.7,47.4,41.7,37.8,88,69,43,30.16,30.04,14,1,14,0.00
2012-11-21,63.0,44.7,36.1,47.8,40.3,34.3,96,86,52,30.19,30.01,15,2,15,0.00
2012-11-22,64.6,49.7,38.7,48.4,41.0,27.3,96,74,45,30.02,29.72,24,4,24,0.00
2012-11-23,39.2,29.8,23.9,27.9,12.2,-6.6,65,49,19,30.22,29.91,25,5,25,0.00
2012-11-24,38.5,28.4,19.8,16.6,12.2,6.5,61,51,32,30.24,29.89,9,1,9,0.00
2012-11-25,48.2,34.6,24.4,23.6,18.9,13.9,65,54,35,30.08,29.81,14,1,14,0.00
2012-11-26,34.7,27.1,17.6,21.2,13.1,0.0,67,56,44,30.36,30.07,14,1,14,0.00
2012-11-27,36.0,23.6,14.2,11.5,2.1,-8.1,55,41,19,30.38,30.21,36,2,36,0.00
2012-11-28,53.2,34.8,22.1,24.5,12.6,0.3,58,42,19,30.35,30.19,8,0,8,0.00
2012-11-29,54.1,39.4,25.5,32.4,25.3,15.1,72,58,40,30.20,30.01,9,1,9,0.00
2012-11-30,63.0,44.2,32.9,36.7,31.3,26.3,77,62,35,30.12,30.00,13,1,13,0.00
2012-12-1,57.0,45.3,31.8,52.0,40.6,26.3,90,83,77,30.09,29.83,14,2,14,0.00
2012-12-2,69.8,54.5,46.9,54.0,48.6,43.1,96,82,46,30.03,29.83,14,0,14,0.00
2012-12-3,68.2,57.2,46.8,62.0,52.5,40.1,96,85,67,29.98,29.71,20,3,20,0.00
2012-12-4,67.3,47.4,34.2,40.3,29.8,17.3,76,54,19,30.29,29.92,14,1,14,0.00
2012-12-5,45.9,32.9,22.6,25.0,13.8,-0.1,73,48,19,30.41,30.13,10,2,10,0.00
2012-12-6,46.9,40.2,32.7,36.6,31.7,25.0,78,72,63,30.13,29.86,14,2,14,0.33
2012-12-7,43.2,39.8,35.2,36.2,28.9,24.4,77,66,49,29.95,29.88,14,2,14,0.71
2012-12-8,39.6,35.2,31.5,30.7,28.3,26.0,83,76,69,30.05,29.88,13,2,13,0.00
2012-12-9,38.1,35.2,29.1,36.0,32.1,24.5,93,89,78,30.02,29.72,17,2,17,1.14
2012-12-10,31.8,27.3,23.7,27.8,22.3,16.8,87,81,74,29.95,29.74,15,2,17,0.04
2012-12-11,36.9,25.8,16.2,21.0,15.5,9.7,77,66,44,30.09,29.92,14,1,14,0.00
2012-12-12,50.7,34.9,21.7,24.4,20.9,8.1,73,58,19,30.21,30.08,18,2,18,0.39
2012-12-13,52.5,36.2,26.6,23.9,20.4,7.5,72,55,19,30.18,30.03,17,2,17,0.29
2012-12-14,53.2,39.1,28.0,34.3,26.6,19.6,73,62,40,30.14,29.93,11,2,11,0.00
2012-12-15,47.8,43.8,39.4,46.8,41.3,32.7,96,91,70,29.93,29.50,21,4,101,1.98
2012-12-16,47.1,39.1,35.8,46.0,35.3,30.5,96,86,80,29.73,29.54,14,2,14,18.25
2012-12-17,36.0,33.1,31.8,30.5,26.9,24.6,83,78,72,29.73,29.67,14,0,14,0.51
2012-12-18,38.8,33.4,28.4,35.1,28.4,21.9,87,82,75,29.86,29.52,15,2,15,0.12
2012-12-19,36.9,33.8,32.4,29.8,27.9,26.8,87,79,72,30.01,29.69,15,2,15,0.10
2012-12-20,34.5,31.3,24.4,32.6,29.0,20.3,94,91,85,29.69,29.16,38,8,38,20.21
2012-12-21,24.4,22.2,20.1,20.3,17.0,14.0,84,80,77,29.81,29.66,29,9,29,0.27
2012-12-22,34.9,23.2,8.8,15.6,8.6,-2.1,65,54,41,30.19,29.91,14,1,14,2.51
2012-12-23,32.4,21.3,14.5,17.1,10.6,3.8,72,63,51,30.01,29.90,18,2,18,4.28
2012-12-24,33.4,25.3,18.0,22.4,16.5,7.4,73,69,61,30.12,29.86,12,2,12,0.16
2012-12-25,34.5,19.2,10.6,10.6,3.7,-10.6,63,52,19,30.32,30.12,15,2,15,1.08
2012-12-26,28.8,23.7,19.0,16.3,12.4,7.0,68,62,56,30.20,30.04,19,4,19,0.02
2012-12-27,31.8,23.5,16.2,17.6,11.9,4.2,69,61,54,30.17,30.06,14,1,14,4.63
2012-12-28,30.6,27.8,25.5,22.3,20.3,16.4,77,73,69,30.06,29.88,15,1,15,1.37
2012-12-29,27.5,20.7,9.5,21.2,10.8,-1.3,77,65,57,30.20,29.87,15,2,15,0.06
2012-12-30,30.7,18.6,5.7,20.3,6.9,-4.4,70,60,47,30.28,29.99,12,1,12,0.02
2012-12-31,32.2,23.6,15.1,19.9,10.8,0.0,65,58,51,30.15,29.96,11,1,11,0.04
2013-1-1,36.9,13.7,3.6,0.2,-11.0,-25.0,51,34,19,30.23,30.13,14,1,14,0.00